Time;durP1;ratioP1;P1;durP2;ratioP2;P2;SDS_P1;SDS_P2;PMS_P1;PMS_P2;Temp;Humidity;BMP_temperature;BMP_pressure;BME280_temperature;BME280_humidity;BME280_pressure;Samples;Min_cycle;Max_cycle;Signal;HPM_P1;HPM_P2
2023/10/27 00:00:15;;;;;;;15.40;3.47;;;16.00;78.00;;;;;;5050511;28;20175;-71
2023/10/27 00:02:43;;;;;;;14.17;3.70;;;16.50;77.70;;;;;;5051453;28;20236;-67
2023/10/27 00:05:10;;;;;;;11.90;2.67;;;16.80;77.30;;;;;;5083817;28;20650;-73
2023/10/27 00:07:37;;;;;;;15.13;3.30;;;16.80;76.10;;;;;;5050957;28;20179;-75
2023/10/27 00:10:05;;;;;;;11.33;3.40;;;17.10;76.40;;;;;;5044450;28;20191;-73
2023/10/27 00:12:32;;;;;;;12.27;3.00;;;16.80;76.00;;;;;;5056837;28;20183;-68
2023/10/27 00:15:00;;;;;;;10.33;2.80;;;17.20;76.30;;;;;;5050468;28;20188;-72
2023/10/27 00:17:27;;;;;;;11.17;3.10;;;16.90;74.20;;;;;;5053337;28;20316;-74
2023/10/27 00:19:55;;;;;;;12.87;2.47;;;16.90;74.10;;;;;;5053473;28;20179;-71
2023/10/27 00:22:25;;;;;;;11.00;2.20;;;16.90;74.00;;;;;;5053009;28;20306;-69
2023/10/27 00:24:52;;;;;;;8.37;2.63;;;16.80;73.20;;;;;;5053060;28;20254;-68
2023/10/27 00:27:20;;;;;;;17.07;2.90;;;16.70;73.60;;;;;;5053213;28;20191;-72
2023/10/27 00:29:47;;;;;;;11.37;2.63;;;16.70;75.20;;;;;;5052683;28;20202;-71
2023/10/27 00:32:15;;;;;;;9.43;2.40;;;16.80;75.30;;;;;;5053080;28;20191;-71
2023/10/27 00:34:42;;;;;;;8.97;2.00;;;16.60;76.40;;;;;;5048597;28;20171;-74
2023/10/27 00:37:09;;;;;;;5.47;2.03;;;16.30;76.50;;;;;;5052972;28;20736;-75
2023/10/27 00:39:39;;;;;;;9.90;2.40;;;16.30;76.50;;;;;;5052679;28;20271;-73
2023/10/27 00:42:07;;;;;;;9.47;2.80;;;16.50;75.80;;;;;;5064517;28;20205;-71
2023/10/27 00:44:35;;;;;;;10.50;2.60;;;16.70;75.70;;;;;;5052671;28;20183;-70
2023/10/27 00:47:02;;;;;;;11.07;2.80;;;17.00;73.90;;;;;;5051677;28;20184;-72
2023/10/27 00:49:30;;;;;;;13.53;2.83;;;17.30;72.50;;;;;;5052633;28;20179;-72
2023/10/27 00:51:57;;;;;;;15.30;3.07;;;17.50;70.70;;;;;;5052220;28;20191;-73
2023/10/27 00:54:27;;;;;;;13.57;2.70;;;17.40;72.30;;;;;;5053149;28;20708;-76
2023/10/27 00:56:56;;;;;;;11.33;3.10;;;17.40;72.10;;;;;;5052515;28;20197;-70
2023/10/27 00:59:24;;;;;;;10.27;3.17;;;17.80;73.20;;;;;;5052213;28;20528;-70
2023/10/27 01:01:51;;;;;;;14.30;3.30;;;18.00;74.50;;;;;;5047669;28;20202;-71
2023/10/27 01:04:19;;;;;;;10.03;2.70;;;17.90;73.20;;;;;;5056705;28;20263;-73
2023/10/27 01:06:46;;;;;;;8.97;2.30;;;18.00;72.00;;;;;;5050251;28;20184;-67
2023/10/27 01:09:14;;;;;;;9.43;2.33;;;18.30;71.80;;;;;;5052443;28;20188;-70
2023/10/27 01:11:45;;;;;;;8.43;2.23;;;18.40;72.20;;;;;;5054313;28;20175;-67
2023/10/27 01:14:13;;;;;;;11.77;3.17;;;18.00;70.50;;;;;;5052104;28;20195;-70
2023/10/27 01:16:40;;;;;;;9.10;2.87;;;18.00;70.10;;;;;;5049123;28;20545;-70
2023/10/27 01:19:08;;;;;;;14.27;2.83;;;18.30;69.80;;;;;;5051097;28;20195;-71
2023/10/27 01:21:35;;;;;;;11.27;2.70;;;18.90;66.80;;;;;;5051171;28;20239;-70
2023/10/27 01:24:04;;;;;;;14.03;2.37;;;19.50;64.90;;;;;;5052415;28;20217;-71
2023/10/27 01:26:31;;;;;;;13.20;2.20;;;19.70;63.10;;;;;;5052018;28;20175;-70
2023/10/27 01:28:59;;;;;;;17.43;3.50;;;19.90;61.40;;;;;;5051804;28;20211;-70
2023/10/27 01:31:26;;;;;;;12.93;2.70;;;19.50;61.30;;;;;;5061933;28;20171;-70
2023/10/27 01:33:53;;;;;;;13.20;2.67;;;19.00;63.50;;;;;;5056968;28;20179;-75
2023/10/27 01:36:21;;;;;;;14.13;2.60;;;19.00;65.70;;;;;;5052225;28;20183;-69
2023/10/27 01:38:48;;;;;;;12.00;2.40;;;18.80;66.40;;;;;;5052065;28;20581;-69
2023/10/27 01:41:17;;;;;;;15.03;3.17;;;18.50;67.90;;;;;;5057547;28;20164;-70
2023/10/27 01:43:44;;;;;;;12.30;2.70;;;17.90;70.70;;;;;;5051691;28;20219;-72
2023/10/27 01:46:11;;;;;;;11.33;2.93;;;17.50;72.50;;;;;;5051990;28;20176;-69
2023/10/27 01:48:39;;;;;;;14.10;2.77;;;17.10;73.90;;;;;;5051972;28;20203;-68
2023/10/27 01:51:06;;;;;;;9.47;2.60;;;17.30;74.30;;;;;;5052135;28;20175;-68
2023/10/27 01:53:33;;;;;;;10.40;2.70;;;17.30;73.60;;;;;;5051859;28;20566;-70
2023/10/27 01:56:01;;;;;;;10.10;2.63;;;17.30;70.80;;;;;;5051629;28;20206;-68
2023/10/27 01:58:29;;;;;;;10.83;2.57;;;18.00;65.20;;;;;;5053690;28;20225;-69
2023/10/27 02:00:56;;;;;;;10.13;2.33;;;19.00;61.20;;;;;;5041839;28;20185;-69
2023/10/27 02:03:23;;;;;;;9.60;2.10;;;19.30;60.60;;;;;;5049278;28;20208;-70
2023/10/27 02:05:51;;;;;;;9.70;2.70;;;19.20;60.30;;;;;;5055419;28;20207;-74
2023/10/27 02:08:18;;;;;;;10.00;1.93;;;18.80;60.10;;;;;;5055640;28;20183;-70
2023/10/27 02:10:45;;;;;;;5.50;1.70;;;18.30;61.70;;;;;;5057345;28;20262;-70
2023/10/27 02:13:13;;;;;;;9.37;2.00;;;18.00;61.50;;;;;;5055501;28;20194;-72
2023/10/27 02:15:42;;;;;;;8.00;2.47;;;18.00;61.40;;;;;;5051954;28;20176;-71
2023/10/27 02:18:09;;;;;;;6.37;1.97;;;18.70;59.30;;;;;;5063542;28;20179;-69
2023/10/27 02:20:36;;;;;;;6.50;1.80;;;19.30;55.70;;;;;;5061966;28;20197;-74
2023/10/27 02:23:04;;;;;;;9.00;1.93;;;20.30;53.70;;;;;;5055274;28;20208;-69
2023/10/27 02:25:31;;;;;;;9.67;1.90;;;20.40;51.80;;;;;;5055435;28;20215;-69
2023/10/27 02:27:58;;;;;;;5.47;1.70;;;20.80;53.20;;;;;;5054869;28;20176;-74
2023/10/27 02:30:26;;;;;;;11.97;1.90;;;21.00;50.90;;;;;;5054643;28;20635;-71
2023/10/27 02:32:53;;;;;;;6.00;1.67;;;20.70;52.60;;;;;;5055266;28;20179;-70
2023/10/27 02:35:21;;;;;;;7.33;1.50;;;20.80;52.50;;;;;;5055095;28;20164;-73
2023/10/27 02:37:48;;;;;;;9.47;2.80;;;21.00;52.60;;;;;;5053630;28;20227;-70
2023/10/27 02:40:16;;;;;;;8.23;1.97;;;20.60;55.10;;;;;;5056205;28;20247;-72
2023/10/27 02:42:43;;;;;;;11.10;1.90;;;19.70;57.30;;;;;;5064352;28;20294;-69
2023/10/27 02:45:10;;;;;;;4.07;1.47;;;19.60;56.70;;;;;;5053643;28;20180;-69
2023/10/27 02:47:38;;;;;;;4.50;1.30;;;19.80;53.10;;;;;;5054431;28;20183;-72
2023/10/27 02:50:05;;;;;;;3.33;1.20;;;20.00;50.20;;;;;;5087080;28;20182;-73
2023/10/27 02:52:33;;;;;;;5.27;1.30;;;20.50;48.70;;;;;;5055000;28;20661;-73
2023/10/27 02:55:00;;;;;;;4.37;1.40;;;21.00;47.80;;;;;;5054732;28;20212;-77
2023/10/27 02:57:27;;;;;;;5.90;1.50;;;21.00;48.00;;;;;;5054891;28;20177;-75
2023/10/27 02:59:56;;;;;;;6.57;1.47;;;21.10;47.20;;;;;;5053211;28;20500;-71
2023/10/27 03:02:24;;;;;;;6.57;1.47;;;20.00;47.70;;;;;;5054783;28;20188;-76
2023/10/27 03:04:53;;;;;;;9.23;1.80;;;20.30;47.70;;;;;;5052155;28;20194;-72
2023/10/27 03:07:20;;;;;;;9.70;2.40;;;20.50;47.40;;;;;;5054348;28;20270;-72
2023/10/27 03:09:48;;;;;;;10.60;1.80;;;21.20;49.20;;;;;;5053580;28;20209;-71
2023/10/27 03:12:16;;;;;;;9.67;2.10;;;21.40;50.30;;;;;;5065522;28;20649;-70
2023/10/27 03:14:44;;;;;;;9.07;1.93;;;21.80;49.10;;;;;;5054424;28;20204;-73
2023/10/27 03:17:11;;;;;;;6.80;2.10;;;21.30;48.50;;;;;;5053056;28;20225;-72
2023/10/27 03:19:38;;;;;;;6.27;1.80;;;21.40;48.10;;;;;;5054325;28;20277;-70
2023/10/27 03:22:06;;;;;;;9.87;2.17;;;21.50;49.50;;;;;;5054007;28;20330;-71
2023/10/27 03:24:33;;;;;;;5.67;1.70;;;21.50;48.80;;;;;;5054157;28;20584;-68
2023/10/27 03:27:01;;;;;;;8.53;1.70;;;21.80;47.80;;;;;;5054058;28;20193;-70
2023/10/27 03:29:28;;;;;;;7.27;1.67;;;21.40;47.60;;;;;;5053831;28;20179;-67
2023/10/27 03:31:56;;;;;;;3.67;1.30;;;21.80;46.70;;;;;;5052773;28;20180;-73
2023/10/27 03:34:23;;;;;;;4.77;1.13;;;21.30;45.50;;;;;;5052657;28;20188;-73
2023/10/27 03:36:50;;;;;;;2.50;1.20;;;21.20;46.50;;;;;;5053809;28;20219;-70
2023/10/27 03:39:18;;;;;;;4.27;1.23;;;21.10;47.20;;;;;;5054223;28;20184;-73
2023/10/27 03:41:45;;;;;;;6.13;1.83;;;21.00;49.40;;;;;;5060022;28;20183;-67
2023/10/27 03:44:12;;;;;;;3.87;1.10;;;21.50;50.20;;;;;;5052649;28;20701;-69
2023/10/27 03:46:39;;;;;;;4.87;1.23;;;21.40;48.50;;;;;;5053530;28;20183;-67
2023/10/27 03:49:07;;;;;;;2.90;1.33;;;21.40;48.50;;;;;;5053801;28;20187;-67
2023/10/27 03:51:34;;;;;;;3.83;1.00;;;21.30;47.30;;;;;;5053357;28;20618;-71
2023/10/27 03:54:01;;;;;;;3.20;1.10;;;21.00;46.90;;;;;;5053253;28;20218;-69
2023/10/27 03:56:31;;;;;;;7.50;1.43;;;21.20;46.10;;;;;;5053514;28;20634;-69
2023/10/27 03:58:59;;;;;;;2.93;1.13;;;21.40;47.60;;;;;;5034075;28;20700;-71
2023/10/27 04:01:29;;;;;;;3.57;1.33;;;21.70;45.50;;;;;;5051520;28;20276;-67
2023/10/27 04:03:56;;;;;;;2.83;1.10;;;21.10;44.50;;;;;;5038291;28;20251;-70
2023/10/27 04:06:24;;;;;;;3.10;1.20;;;20.80;46.40;;;;;;5051373;28;20172;-67
2023/10/27 04:08:51;;;;;;;4.80;1.30;;;21.30;46.80;;;;;;5052864;28;20195;-72
2023/10/27 04:11:18;;;;;;;6.50;1.47;;;21.80;45.50;;;;;;5054227;28;20302;-69
2023/10/27 04:13:46;;;;;;;7.83;1.67;;;21.30;46.90;;;;;;5052665;28;20709;-71
2023/10/27 04:16:13;;;;;;;7.40;1.70;;;21.90;46.80;;;;;;5050628;28;20210;-67
2023/10/27 04:18:41;;;;;;;8.20;1.67;;;21.90;48.30;;;;;;5042890;28;20172;-70
2023/10/27 04:21:08;;;;;;;4.33;1.30;;;22.40;46.80;;;;;;5053210;28;20190;-66
2023/10/27 04:23:35;;;;;;;11.90;2.30;;;21.20;51.70;;;;;;5048310;28;20255;-67
2023/10/27 04:26:03;;;;;;;10.80;2.10;;;19.60;56.70;;;;;;5052274;28;20622;-70
2023/10/27 04:28:30;;;;;;;11.23;2.40;;;18.80;64.70;;;;;;5052543;28;20661;-70
2023/10/27 04:30:58;;;;;;;14.07;3.13;;;17.80;71.30;;;;;;5052231;28;20168;-69
2023/10/27 04:33:25;;;;;;;13.10;2.30;;;16.80;75.50;;;;;;5052974;28;20172;-70
2023/10/27 04:35:53;;;;;;;15.30;2.37;;;16.60;78.40;;;;;;5052426;28;20187;-69
2023/10/27 04:38:20;;;;;;;8.70;2.00;;;16.30;79.40;;;;;;5050596;28;20222;-73
2023/10/27 04:40:51;;;;;;;10.77;2.63;;;16.30;79.70;;;;;;5051124;28;20538;-68
2023/10/27 04:43:19;;;;;;;11.73;2.77;;;16.30;80.10;;;;;;5052485;28;20220;-70
2023/10/27 04:45:48;;;;;;;13.97;2.37;;;16.50;80.90;;;;;;5052136;28;20164;-69
2023/10/27 04:48:15;;;;;;;15.73;2.73;;;16.50;79.00;;;;;;5052657;28;20329;-66
2023/10/27 04:50:43;;;;;;;14.07;2.53;;;16.60;77.80;;;;;;5052525;28;20279;-66
2023/10/27 04:53:10;;;;;;;10.57;2.13;;;17.00;77.40;;;;;;5052816;28;20191;-70
2023/10/27 04:55:37;;;;;;;9.83;2.30;;;17.60;75.20;;;;;;5052435;28;20270;-68
2023/10/27 04:58:05;;;;;;;11.97;2.43;;;18.30;74.40;;;;;;5052830;28;20259;-70
2023/10/27 05:00:32;;;;;;;8.47;2.00;;;18.30;72.00;;;;;;5047389;28;20946;-69
2023/10/27 05:02:59;;;;;;;2.60;1.23;;;18.30;70.40;;;;;;5052286;28;20216;-70
2023/10/27 05:05:26;;;;;;;12.03;1.77;;;18.10;67.40;;;;;;5052635;28;20168;-70
2023/10/27 05:07:55;;;;;;;6.73;1.80;;;18.20;66.80;;;;;;5052102;28;20179;-69
2023/10/27 05:10:23;;;;;;;9.17;2.17;;;18.30;66.10;;;;;;5051556;28;20195;-68
2023/10/27 05:12:50;;;;;;;11.00;2.13;;;18.80;63.90;;;;;;5060916;28;20210;-68
2023/10/27 05:15:18;;;;;;;7.03;1.87;;;19.90;61.20;;;;;;5052883;28;20180;-69
2023/10/27 05:17:46;;;;;;;5.27;1.50;;;20.80;57.20;;;;;;5044024;28;20184;-70
2023/10/27 05:20:14;;;;;;;4.27;1.20;;;21.20;57.20;;;;;;5048388;28;20192;-70
2023/10/27 05:22:42;;;;;;;7.53;1.60;;;21.10;55.80;;;;;;5063507;28;20739;-69
2023/10/27 05:25:09;;;;;;;5.83;1.40;;;21.40;55.10;;;;;;5053726;28;20199;-71
2023/10/27 05:27:37;;;;;;;7.63;1.47;;;21.70;53.00;;;;;;5048040;28;20192;-71
2023/10/27 05:30:04;;;;;;;4.70;1.20;;;21.10;54.70;;;;;;5050814;28;20253;-68
2023/10/27 05:32:33;;;;;;;11.77;2.03;;;20.30;57.80;;;;;;5052614;28;20179;-71
2023/10/27 05:35:00;;;;;;;9.77;2.07;;;19.70;59.90;;;;;;5055995;28;20187;-73
2023/10/27 05:37:27;;;;;;;8.00;1.90;;;19.10;62.30;;;;;;5052160;28;20255;-70
2023/10/27 05:39:55;;;;;;;5.27;1.67;;;19.20;61.60;;;;;;5055607;28;20579;-71
2023/10/27 05:42:22;;;;;;;4.97;1.70;;;18.30;58.60;;;;;;5056868;28;20213;-71
2023/10/27 05:44:49;;;;;;;7.37;1.90;;;18.20;60.10;;;;;;5054442;28;20183;-70
2023/10/27 05:47:19;;;;;;;7.67;2.33;;;18.70;56.90;;;;;;5044636;28;20180;-68
2023/10/27 05:49:46;;;;;;;5.40;1.30;;;19.70;54.40;;;;;;5055894;28;20642;-69
2023/10/27 05:52:14;;;;;;;5.17;1.50;;;21.00;51.60;;;;;;5055240;28;20183;-72
2023/10/27 05:54:43;;;;;;;3.40;1.10;;;21.40;47.80;;;;;;5053865;28;20184;-70
2023/10/27 05:57:10;;;;;;;2.20;0.90;;;20.30;49.00;;;;;;5056015;28;20233;-70
2023/10/27 05:59:38;;;;;;;7.87;2.00;;;20.80;50.70;;;;;;5055174;28;20267;-67
2023/10/27 06:02:06;;;;;;;5.93;1.00;;;21.50;49.30;;;;;;5052230;28;20291;-70
2023/10/27 06:04:36;;;;;;;6.83;1.53;;;21.20;49.90;;;;;;5047169;28;20192;-72
2023/10/27 06:07:04;;;;;;;6.20;1.50;;;22.00;48.10;;;;;;5055965;28;20191;-71
2023/10/27 06:09:31;;;;;;;6.70;1.57;;;21.50;50.40;;;;;;5055827;28;20536;-68
2023/10/27 06:11:59;;;;;;;7.00;1.50;;;22.20;48.90;;;;;;5065996;28;20176;-69
2023/10/27 06:14:26;;;;;;;5.80;1.43;;;21.00;52.20;;;;;;5041218;28;20172;-69
2023/10/27 06:16:53;;;;;;;7.93;1.80;;;20.40;53.80;;;;;;5048210;28;20176;-72
2023/10/27 06:19:21;;;;;;;8.20;1.80;;;19.70;55.50;;;;;;5055169;28;20546;-67
2023/10/27 06:21:48;;;;;;;5.03;1.33;;;19.20;56.60;;;;;;5054511;28;20191;-68
2023/10/27 06:24:15;;;;;;;4.30;1.47;;;18.70;58.80;;;;;;5053562;28;20547;-70
2023/10/27 06:26:43;;;;;;;8.23;1.90;;;18.30;60.20;;;;;;5055090;28;20206;-66
2023/10/27 06:29:10;;;;;;;8.50;1.50;;;18.10;59.60;;;;;;5055139;28;20258;-68
2023/10/27 06:31:38;;;;;;;5.03;1.47;;;18.90;57.40;;;;;;5054452;28;20258;-67
2023/10/27 06:34:05;;;;;;;6.73;1.67;;;20.00;52.60;;;;;;5042484;28;20222;-74
2023/10/27 06:36:32;;;;;;;2.33;1.27;;;20.30;51.70;;;;;;5054832;28;20239;-69
2023/10/27 06:39:01;;;;;;;3.87;1.20;;;20.80;49.80;;;;;;5053792;28;20184;-68
2023/10/27 06:41:28;;;;;;;5.13;1.50;;;20.40;50.90;;;;;;5055804;28;20270;-68
2023/10/27 06:43:55;;;;;;;8.40;1.60;;;20.10;52.00;;;;;;5046529;28;20239;-73
2023/10/27 06:46:23;;;;;;;5.53;1.67;;;19.50;52.10;;;;;;5052463;28;20541;-71
2023/10/27 06:48:52;;;;;;;6.17;1.03;;;18.90;53.90;;;;;;5051325;28;20657;-73
2023/10/27 06:51:19;;;;;;;5.60;2.03;;;18.30;54.00;;;;;;5053174;28;20651;-71
2023/10/27 06:53:47;;;;;;;4.83;1.67;;;18.00;55.40;;;;;;5053148;28;20253;-69
2023/10/27 06:56:14;;;;;;;8.20;2.10;;;17.80;56.40;;;;;;5051774;28;20188;-71
2023/10/27 06:58:41;;;;;;;5.27;1.40;;;18.30;56.30;;;;;;5054471;28;20189;-73
2023/10/27 07:01:09;;;;;;;8.47;1.43;;;18.00;54.40;;;;;;5054095;28;20182;-71
2023/10/27 07:03:37;;;;;;;5.47;1.57;;;17.90;55.70;;;;;;5053165;28;20227;-71
2023/10/27 07:06:05;;;;;;;10.07;1.87;;;19.00;54.10;;;;;;5052121;28;20264;-73
2023/10/27 07:08:33;;;;;;;4.93;1.30;;;20.10;51.70;;;;;;5052402;28;20246;-71
2023/10/27 07:11:00;;;;;;;8.73;2.10;;;20.30;52.30;;;;;;5055362;28;20184;-74
2023/10/27 07:13:28;;;;;;;8.77;1.80;;;19.80;53.00;;;;;;5053183;28;20554;-71
2023/10/27 07:15:56;;;;;;;6.70;1.80;;;18.80;56.50;;;;;;5053331;28;20188;-69
2023/10/27 07:18:23;;;;;;;11.80;2.37;;;18.40;57.70;;;;;;5051407;28;20241;-69
2023/10/27 07:20:53;;;;;;;8.40;1.90;;;18.30;58.70;;;;;;5054291;28;20176;-71
2023/10/27 07:23:20;;;;;;;6.50;1.50;;;18.20;58.00;;;;;;5053935;28;20227;-68
2023/10/27 07:25:48;;;;;;;4.90;1.40;;;17.80;58.30;;;;;;5053134;28;20253;-69
2023/10/27 07:28:15;;;;;;;8.87;1.90;;;17.50;58.80;;;;;;5052328;28;20188;-67
2023/10/27 07:30:43;;;;;;;6.37;1.37;;;17.30;59.00;;;;;;5045732;28;20179;-68
2023/10/27 07:33:10;;;;;;;6.03;1.53;;;17.20;59.60;;;;;;5048585;28;20195;-67
2023/10/27 07:35:38;;;;;;;10.50;1.97;;;17.00;60.30;;;;;;5053199;28;20206;-68
2023/10/27 07:38:05;;;;;;;4.97;1.87;;;16.90;60.70;;;;;;5053430;28;20249;-67
2023/10/27 07:40:34;;;;;;;7.03;1.30;;;16.70;61.40;;;;;;5057006;28;20244;-68
2023/10/27 07:43:02;;;;;;;12.53;2.20;;;16.60;61.60;;;;;;5054993;28;20673;-69
2023/10/27 07:45:29;;;;;;;5.57;1.97;;;16.60;62.10;;;;;;5052370;28;20187;-66
2023/10/27 07:47:58;;;;;;;3.73;1.97;;;16.60;62.40;;;;;;5052958;28;20217;-67
2023/10/27 07:50:25;;;;;;;6.67;2.03;;;16.50;62.70;;;;;;5053757;28;20197;-68
2023/10/27 07:52:53;;;;;;;5.37;2.20;;;16.40;62.10;;;;;;5052557;28;20191;-72
2023/10/27 07:55:20;;;;;;;10.60;2.07;;;16.50;62.80;;;;;;5053111;28;20534;-67
2023/10/27 07:57:47;;;;;;;9.97;2.67;;;16.40;62.80;;;;;;5050191;28;20184;-72
2023/10/27 08:00:15;;;;;;;8.77;2.07;;;16.30;63.30;;;;;;5053636;28;20176;-72
2023/10/27 08:02:42;;;;;;;9.67;2.87;;;16.30;64.10;;;;;;5052882;28;20227;-68
2023/10/27 08:05:10;;;;;;;10.57;2.20;;;16.20;64.60;;;;;;5053876;28;20641;-68
2023/10/27 08:07:38;;;;;;;11.43;3.13;;;16.20;64.80;;;;;;5053298;28;20172;-69
2023/10/27 08:10:07;;;;;;;8.37;2.13;;;16.20;65.10;;;;;;5048616;28;20186;-71
2023/10/27 08:12:34;;;;;;;10.47;3.70;;;16.20;64.90;;;;;;5052840;28;20237;-69
2023/10/27 08:15:05;;;;;;;12.97;2.80;;;16.20;65.50;;;;;;5052726;28;20229;-72
2023/10/27 08:17:36;;;;;;;7.17;2.60;;;16.10;65.70;;;;;;5047507;28;20720;-72
2023/10/27 08:20:05;;;;;;;11.27;3.00;;;16.10;65.90;;;;;;5052521;28;20187;-68
2023/10/27 08:22:32;;;;;;;12.73;4.83;;;16.10;66.10;;;;;;5048268;28;20210;-72
2023/10/27 08:25:00;;;;;;;11.70;3.20;;;16.20;66.70;;;;;;5051584;28;20191;-70
2023/10/27 08:27:27;;;;;;;12.53;2.93;;;16.10;66.30;;;;;;5051676;28;20168;-70
2023/10/27 08:29:58;;;;;;;16.83;4.87;;;16.00;66.40;;;;;;5049736;28;20196;-66
2023/10/27 08:32:26;;;;;;;9.70;3.43;;;16.00;67.20;;;;;;5056235;28;20172;-68
2023/10/27 08:34:54;;;;;;;12.60;4.07;;;16.00;66.10;;;;;;5051429;28;20187;-70
2023/10/27 08:37:21;;;;;;;10.80;3.30;;;16.10;65.70;;;;;;5052576;28;20220;-67
2023/10/27 08:39:48;;;;;;;10.73;3.07;;;16.00;64.90;;;;;;5052158;28;20218;-67
2023/10/27 08:42:16;;;;;;;8.03;2.53;;;16.00;65.50;;;;;;5052374;28;20609;-68
2023/10/27 08:44:43;;;;;;;6.40;2.60;;;16.00;64.70;;;;;;5046325;28;20681;-68
2023/10/27 08:47:12;;;;;;;10.73;3.33;;;16.00;64.40;;;;;;5049446;28;20259;-67
2023/10/27 08:49:40;;;;;;;11.03;3.30;;;16.00;64.40;;;;;;5046806;28;20210;-68
2023/10/27 08:52:08;;;;;;;11.20;3.27;;;16.00;65.40;;;;;;5049567;28;20179;-67
2023/10/27 08:54:41;;;;;;;13.70;3.60;;;16.00;66.40;;;;;;5055040;28;20171;-68
2023/10/27 08:57:09;;;;;;;12.87;2.83;;;16.00;66.40;;;;;;5054260;28;20208;-67
2023/10/27 08:59:36;;;;;;;10.30;2.50;;;16.00;66.30;;;;;;5053534;28;20191;-66
2023/10/27 09:02:05;;;;;;;9.87;3.10;;;15.90;65.70;;;;;;5048197;28;20207;-70
2023/10/27 09:04:33;;;;;;;14.50;3.87;;;15.80;65.90;;;;;;5051406;28;20196;-65
2023/10/27 09:07:01;;;;;;;13.93;3.27;;;15.80;65.90;;;;;;5048580;28;20640;-68
2023/10/27 09:09:28;;;;;;;11.57;2.60;;;15.80;66.30;;;;;;5051708;28;20195;-66
2023/10/27 09:11:56;;;;;;;12.67;4.03;;;15.80;67.50;;;;;;5056818;28;20207;-70
2023/10/27 09:14:32;;;;;;;11.60;3.47;;;15.80;68.20;;;;;;5049689;28;20667;-70
2023/10/27 09:17:07;;;;;;;13.30;3.03;;;15.80;69.00;;;;;;5051016;28;20680;-69
2023/10/27 09:19:35;;;;;;;11.50;3.40;;;15.70;69.60;;;;;;5050700;28;20193;-68
2023/10/27 09:22:13;;;;;;;13.57;4.10;;;15.70;70.00;;;;;;5049366;28;20518;-67
2023/10/27 09:24:41;;;;;;;12.20;3.33;;;15.70;69.60;;;;;;5045552;28;20180;-67
2023/10/27 09:27:08;;;;;;;8.73;3.43;;;15.70;69.50;;;;;;5051256;28;20535;-68
2023/10/27 09:29:44;;;;;;;8.17;2.43;;;15.70;69.40;;;;;;5050721;28;20281;-66
2023/10/27 09:32:27;;;;;;;16.63;4.73;;;15.70;68.80;;;;;;5047539;28;20314;-67
2023/10/27 09:35:18;;;;;;;12.70;3.17;;;15.60;68.70;;;;;;5050058;28;20174;-69
2023/10/27 09:37:49;;;;;;;8.97;3.10;;;15.60;68.70;;;;;;5045242;28;20329;-69
2023/10/27 09:40:16;;;;;;;10.20;3.10;;;15.50;68.70;;;;;;5051843;28;20313;-68
2023/10/27 09:42:44;;;;;;;9.17;2.33;;;15.50;68.70;;;;;;5051947;28;20269;-68
2023/10/27 09:45:13;;;;;;;13.33;3.37;;;15.40;68.00;;;;;;5048481;28;20199;-72
2023/10/27 09:47:55;;;;;;;8.23;2.70;;;15.40;67.40;;;;;;5052128;28;20188;-69
2023/10/27 09:50:25;;;;;;;7.57;2.67;;;15.40;67.10;;;;;;5051828;28;20234;-68
2023/10/27 09:52:55;;;;;;;11.70;2.30;;;15.40;66.40;;;;;;5050399;28;20197;-67
2023/10/27 09:55:24;;;;;;;9.73;2.23;;;15.40;66.40;;;;;;5051138;28;20649;-66
2023/10/27 09:57:52;;;;;;;12.53;2.50;;;15.40;66.40;;;;;;5043479;28;20197;-67
2023/10/27 10:00:29;;;;;;;11.67;2.50;;;15.40;66.90;;;;;;5047576;28;20177;-69
2023/10/27 10:02:59;;;;;;;7.90;2.60;;;15.40;68.00;;;;;;5047233;28;20214;-66
2023/10/27 10:05:26;;;;;;;8.87;2.63;;;15.50;68.30;;;;;;5046173;28;20194;-67
2023/10/27 10:07:56;;;;;;;15.07;3.40;;;15.50;68.30;;;;;;5047699;28;20272;-68
2023/10/27 10:10:29;;;;;;;8.57;2.17;;;15.40;68.50;;;;;;5049403;28;20190;-67
2023/10/27 10:13:14;;;;;;;12.00;2.10;;;15.40;67.90;;;;;;5054964;28;20183;-68
2023/10/27 10:15:46;;;;;;;7.07;1.90;;;15.50;67.50;;;;;;5048082;28;20707;-67
2023/10/27 10:18:22;;;;;;;8.87;1.93;;;15.50;67.00;;;;;;5047167;28;20187;-70
2023/10/27 10:20:52;;;;;;;8.00;2.10;;;15.50;66.90;;;;;;5055102;28;20184;-68
2023/10/27 10:23:22;;;;;;;6.60;2.30;;;15.50;66.20;;;;;;5053731;28;20697;-67
2023/10/27 10:25:57;;;;;;;9.13;2.40;;;15.50;65.80;;;;;;5054335;28;20190;-68
2023/10/27 10:28:29;;;;;;;8.60;2.23;;;15.40;65.60;;;;;;5047090;28;20184;-67
2023/10/27 10:31:16;;;;;;;9.37;3.00;;;15.40;64.90;;;;;;5053056;28;20188;-68
2023/10/27 10:33:49;;;;;;;9.80;2.60;;;15.40;64.20;;;;;;5051356;28;20180;-67
2023/10/27 10:36:22;;;;;;;8.00;2.40;;;15.40;63.60;;;;;;5053784;28;20200;-67
2023/10/27 10:39:00;;;;;;;9.83;2.30;;;15.40;63.70;;;;;;5051211;28;20222;-70
2023/10/27 10:41:49;;;;;;;7.67;2.03;;;15.40;63.90;;;;;;5059721;28;20202;-69
2023/10/27 10:44:17;;;;;;;7.57;2.13;;;15.50;64.50;;;;;;5050183;28;20246;-66
2023/10/27 10:46:46;;;;;;;7.03;2.13;;;15.40;64.80;;;;;;5052732;28;20176;-68
2023/10/27 10:49:23;;;;;;;8.93;2.33;;;15.40;64.70;;;;;;5046739;28;20214;-68
2023/10/27 10:51:58;;;;;;;8.70;2.47;;;15.30;64.50;;;;;;5054113;28;20206;-67
2023/10/27 10:54:33;;;;;;;7.63;2.10;;;15.30;64.30;;;;;;5054474;28;20528;-68
2023/10/27 10:57:12;;;;;;;6.70;2.17;;;15.30;64.00;;;;;;5055858;28;20209;-67
2023/10/27 10:59:52;;;;;;;9.23;2.07;;;15.30;63.90;;;;;;5054396;28;20635;-67
2023/10/27 11:02:21;;;;;;;7.47;2.40;;;15.30;63.30;;;;;;5057206;28;20564;-68
2023/10/27 11:04:49;;;;;;;8.10;2.20;;;15.30;64.00;;;;;;5063822;28;20607;-67
2023/10/27 11:07:18;;;;;;;12.03;2.13;;;15.30;64.00;;;;;;5055312;28;20205;-66
2023/10/27 11:09:45;;;;;;;10.73;1.90;;;15.30;63.90;;;;;;5065143;28;20266;-69
2023/10/27 11:12:30;;;;;;;6.77;2.10;;;15.30;63.60;;;;;;5057252;28;20180;-68
2023/10/27 11:14:57;;;;;;;12.13;2.30;;;15.30;63.90;;;;;;5052230;28;20554;-65
2023/10/27 11:17:25;;;;;;;7.50;2.00;;;15.30;63.90;;;;;;5054566;28;20186;-68
2023/10/27 11:19:54;;;;;;;8.37;1.87;;;15.40;63.90;;;;;;5054590;28;20551;-69
2023/10/27 11:22:27;;;;;;;6.97;2.03;;;15.50;64.10;;;;;;5056725;28;20211;-67
2023/10/27 11:24:54;;;;;;;5.37;1.77;;;15.50;63.70;;;;;;5057937;28;20187;-67
2023/10/27 11:27:26;;;;;;;8.30;2.20;;;15.50;62.40;;;;;;5053576;28;20520;-68
2023/10/27 11:30:00;;;;;;;5.53;2.33;;;15.50;61.30;;;;;;5054751;28;20209;-67
2023/10/27 11:32:28;;;;;;;8.13;2.00;;;15.50;61.10;;;;;;5061018;28;20257;-66
2023/10/27 11:34:58;;;;;;;7.33;2.10;;;15.40;60.80;;;;;;5051870;28;20187;-67
2023/10/27 11:37:26;;;;;;;10.07;1.97;;;15.40;61.40;;;;;;5053727;28;20701;-68
2023/10/27 11:39:53;;;;;;;8.00;2.17;;;15.40;61.10;;;;;;5053949;28;20646;-67
2023/10/27 11:42:21;;;;;;;9.97;2.17;;;15.40;61.30;;;;;;5055141;28;20227;-66
2023/10/27 11:44:48;;;;;;;6.90;1.70;;;15.50;61.80;;;;;;5057058;28;20238;-67
2023/10/27 11:47:20;;;;;;;6.37;1.60;;;15.50;62.10;;;;;;5057580;28;20204;-68
2023/10/27 11:49:47;;;;;;;4.87;1.60;;;15.50;63.00;;;;;;5060422;28;20278;-68
2023/10/27 11:52:14;;;;;;;6.20;1.70;;;15.40;63.40;;;;;;5056412;28;20254;-72
2023/10/27 11:54:42;;;;;;;8.90;2.40;;;15.30;63.50;;;;;;5058215;28;20279;-72
2023/10/27 11:57:09;;;;;;;10.20;2.07;;;15.50;63.60;;;;;;5057521;28;20546;-71
2023/10/27 11:59:37;;;;;;;7.90;2.40;;;15.40;65.90;;;;;;5058198;28;20247;-71
2023/10/27 12:02:04;;;;;;;13.83;2.73;;;15.30;67.90;;;;;;5058890;28;20190;-71
2023/10/27 12:04:31;;;;;;;9.10;2.30;;;15.20;70.00;;;;;;5061621;28;20265;-71
2023/10/27 12:06:59;;;;;;;9.87;2.03;;;15.00;71.10;;;;;;5060246;28;20184;-71
2023/10/27 12:09:26;;;;;;;11.43;2.27;;;15.00;72.00;;;;;;5067186;28;20176;-69
2023/10/27 12:11:53;;;;;;;7.87;2.23;;;14.90;72.50;;;;;;5052318;28;20194;-71
2023/10/27 12:14:22;;;;;;;8.47;2.00;;;14.80;73.10;;;;;;5052990;28;20208;-74
2023/10/27 12:16:51;;;;;;;8.03;2.00;;;14.80;73.70;;;;;;5055852;28;20645;-69
2023/10/27 12:19:18;;;;;;;8.97;2.27;;;14.70;74.20;;;;;;5053760;28;20179;-70
2023/10/27 12:21:46;;;;;;;7.57;2.40;;;14.70;74.50;;;;;;5055268;28;20180;-73
2023/10/27 12:24:15;;;;;;;10.73;2.57;;;14.70;74.50;;;;;;5047081;28;20228;-71
2023/10/27 12:26:44;;;;;;;7.33;1.80;;;14.70;74.60;;;;;;5055216;28;20561;-69
2023/10/27 12:29:14;;;;;;;5.10;1.87;;;14.80;74.60;;;;;;5050935;28;20215;-69
2023/10/27 12:31:41;;;;;;;10.77;2.40;;;14.70;74.70;;;;;;5051045;28;20192;-67
2023/10/27 12:34:10;;;;;;;10.70;2.00;;;14.70;74.70;;;;;;5053040;28;20215;-67
2023/10/27 12:36:38;;;;;;;6.20;1.57;;;14.60;73.40;;;;;;5054120;28;20227;-71
2023/10/27 12:39:07;;;;;;;5.43;1.50;;;14.50;69.30;;;;;;5053765;28;20646;-67
2023/10/27 12:41:35;;;;;;;5.57;1.67;;;14.70;64.00;;;;;;5052156;28;20203;-70
2023/10/27 12:44:03;;;;;;;4.30;1.40;;;14.80;63.30;;;;;;5051594;28;20265;-68
2023/10/27 12:46:30;;;;;;;6.00;1.60;;;14.90;60.50;;;;;;5049162;28;20177;-69
2023/10/27 12:48:57;;;;;;;10.87;1.60;;;14.90;59.40;;;;;;5053603;28;20180;-70